createdAt,value
2018-07-20T00:00:09.206Z,101334.00
2018-07-20T00:03:33.652Z,101331.47
2018-07-20T00:06:58.077Z,101327.87
2018-07-20T00:10:22.554Z,101321.77
2018-07-20T00:13:47.012Z,101318.84
2018-07-20T00:17:11.458Z,101317.54
2018-07-20T00:20:35.894Z,101317.09
2018-07-20T00:24:00.388Z,101313.97
2018-07-20T00:27:25.004Z,101316.01
2018-07-20T00:30:49.483Z,101310.41
2018-07-20T00:34:13.951Z,101310.59
2018-07-20T00:37:38.387Z,101306.08
2018-07-20T00:41:02.813Z,101299.11
2018-07-20T00:44:27.312Z,101306.81
2018-07-20T00:47:51.705Z,101302.22
2018-07-20T00:51:16.162Z,101304.00
2018-07-20T00:54:40.314Z,101295.78
2018-07-20T00:58:04.763Z,101296.16
2018-07-20T01:01:29.187Z,101291.89
2018-07-20T01:04:53.638Z,101296.16
2018-07-20T01:08:18.089Z,101288.20
2018-07-20T01:11:42.507Z,101291.83
2018-07-20T01:15:06.985Z,101294.57
2018-07-20T01:18:31.421Z,101292.58
2018-07-20T01:21:55.846Z,101289.80
2018-07-20T01:25:20.302Z,101285.54
2018-07-20T01:28:44.751Z,101293.12
2018-07-20T01:32:10.241Z,101292.45
2018-07-20T01:35:34.657Z,101296.09
2018-07-20T01:38:59.071Z,101291.72
2018-07-20T01:42:23.534Z,101294.16
2018-07-20T01:45:48.004Z,101290.69
2018-07-20T01:49:12.460Z,101276.94
2018-07-20T01:52:36.967Z,101279.36
2018-07-20T01:56:01.425Z,101278.35
2018-07-20T01:59:25.897Z,101283.11
2018-07-20T02:02:50.327Z,101277.77
2018-07-20T02:06:14.753Z,101280.61
2018-07-20T02:09:39.171Z,101275.21
2018-07-20T02:13:03.676Z,101275.64
2018-07-20T02:16:28.120Z,101268.02
2018-07-20T02:19:52.560Z,101273.70
2018-07-20T02:23:17.022Z,101268.47
2018-07-20T02:26:41.429Z,101265.09
2018-07-20T02:30:06.158Z,101266.81
2018-07-20T02:33:30.619Z,101269.55
2018-07-20T02:36:55.026Z,101264.75
2018-07-20T02:40:19.519Z,101263.02
2018-07-20T02:43:43.947Z,101264.24
2018-07-20T02:47:08.402Z,101255.24
2018-07-20T02:50:32.892Z,101257.64
2018-07-20T02:53:57.348Z,101257.44
2018-07-20T02:57:21.785Z,101252.12
2018-07-20T03:00:46.238Z,101254.76
2018-07-20T03:04:10.671Z,101250.60
2018-07-20T03:07:35.128Z,101253.13
2018-07-20T03:10:59.538Z,101246.01
2018-07-20T03:14:24.002Z,101241.72
2018-07-20T03:17:48.465Z,101246.35
2018-07-20T03:21:12.867Z,101249.29
2018-07-20T03:24:37.283Z,101242.41
2018-07-20T03:28:01.786Z,101248.20
2018-07-20T03:31:26.204Z,101241.09
2018-07-20T03:34:50.668Z,101241.09
2018-07-20T03:38:15.150Z,101244.77
2018-07-20T03:41:39.918Z,101248.40
2018-07-20T03:45:04.805Z,101246.80
2018-07-20T03:48:29.272Z,101238.69
2018-07-20T03:51:53.834Z,101238.16
2018-07-20T03:55:18.283Z,101236.37
2018-07-20T03:58:42.776Z,101234.38
2018-07-20T04:02:07.266Z,101236.75
2018-07-20T04:05:31.702Z,101239.19
2018-07-20T04:08:56.134Z,101228.52
2018-07-20T04:12:20.605Z,101226.86
2018-07-20T04:15:45.066Z,101223.97
2018-07-20T04:19:09.549Z,101222.67
2018-07-20T04:22:33.967Z,101220.88
2018-07-20T04:25:58.428Z,101224.78
2018-07-20T04:29:22.965Z,101233.65
2018-07-20T04:32:47.394Z,101229.25
2018-07-20T04:36:11.833Z,101229.30
2018-07-20T04:39:36.292Z,101226.09
2018-07-20T04:43:00.742Z,101225.31
2018-07-20T04:46:25.171Z,101223.24
2018-07-20T04:49:49.603Z,101228.05
2018-07-20T04:53:14.045Z,101224.84
2018-07-20T04:56:38.478Z,101223.69
2018-07-20T05:00:02.994Z,101222.90
2018-07-20T05:03:27.437Z,101220.37
2018-07-20T05:06:51.860Z,101216.03
2018-07-20T05:10:16.345Z,101222.38
2018-07-20T05:13:40.810Z,101221.14
2018-07-20T05:17:05.245Z,101216.23
2018-07-20T05:20:29.716Z,101215.09
2018-07-20T05:23:54.163Z,101211.34
2018-07-20T05:27:18.567Z,101212.94
2018-07-20T05:30:43.015Z,101211.92
2018-07-20T05:34:07.473Z,101201.95
2018-07-20T05:37:31.941Z,101198.84
2018-07-20T05:40:56.411Z,101202.32
2018-07-20T05:44:21.418Z,101201.23
2018-07-20T05:47:45.891Z,101204.69
2018-07-20T05:51:10.437Z,101190.94
2018-07-20T05:54:34.868Z,101196.46
2018-07-20T05:57:59.347Z,101198.18
2018-07-20T06:01:23.800Z,101197.52
2018-07-20T06:04:48.235Z,101197.98
2018-07-20T06:08:12.697Z,101203.48
2018-07-20T06:11:37.202Z,101202.25
2018-07-20T06:15:01.660Z,101205.63
2018-07-20T06:18:32.721Z,101201.14
2018-07-20T06:21:57.209Z,101194.47
2018-07-20T06:25:21.713Z,101200.47
2018-07-20T06:28:46.182Z,101204.50
2018-07-20T06:32:10.656Z,101202.66
2018-07-20T06:35:35.169Z,101203.08
2018-07-20T06:38:59.687Z,101204.45
2018-07-20T06:42:24.249Z,101210.92
2018-07-20T06:45:48.779Z,101204.91
2018-07-20T06:49:13.210Z,101206.99
2018-07-20T06:52:37.696Z,101202.89
2018-07-20T06:56:02.179Z,101209.94
2018-07-20T06:59:26.663Z,101214.61
2018-07-20T07:02:51.155Z,101208.45
2018-07-20T07:06:15.655Z,101207.59
2018-07-20T07:09:40.131Z,101210.53
2018-07-20T07:13:04.640Z,101207.41
2018-07-20T07:16:29.092Z,101211.70
2018-07-20T07:19:53.613Z,101207.22
2018-07-20T07:23:18.200Z,101203.59
2018-07-20T07:26:42.637Z,101203.56
2018-07-20T07:30:07.090Z,101202.55
2018-07-20T07:33:31.597Z,101205.11
2018-07-20T07:36:56.035Z,101198.98
2018-07-20T07:40:20.623Z,101203.53
2018-07-20T07:43:45.110Z,101208.53
2018-07-20T07:47:09.836Z,101207.44
2018-07-20T07:50:34.355Z,101200.34
2018-07-20T07:53:58.828Z,101203.30
2018-07-20T07:57:23.276Z,101195.57
2018-07-20T08:00:47.747Z,101192.66
2018-07-20T08:04:12.157Z,101192.81
2018-07-20T08:07:36.599Z,101191.41
2018-07-20T08:11:01.060Z,101186.43
2018-07-20T08:14:25.483Z,101181.23
2018-07-20T08:17:49.946Z,101180.19
2018-07-20T08:21:14.464Z,101180.53
2018-07-20T08:24:38.936Z,101183.71
2018-07-20T08:28:03.413Z,101184.09
2018-07-20T08:31:27.859Z,101182.53
2018-07-20T08:34:52.328Z,101178.73
2018-07-20T08:38:16.737Z,101186.11
2018-07-20T08:41:41.168Z,101182.95
2018-07-20T08:45:05.722Z,101180.92
2018-07-20T08:48:30.166Z,101179.32
2018-07-20T08:51:54.632Z,101173.69
2018-07-20T08:55:19.087Z,101169.88
2018-07-20T08:58:43.490Z,101158.52
2018-07-20T09:02:08.079Z,101157.75
2018-07-20T09:05:32.522Z,101173.11
2018-07-20T09:08:56.986Z,101164.48
2018-07-20T09:12:21.476Z,101164.58
2018-07-20T09:15:45.900Z,101161.25
2018-07-20T09:19:10.368Z,101159.04
2018-07-20T09:22:34.792Z,101153.34
2018-07-20T09:25:59.241Z,101155.97
2018-07-20T09:29:23.658Z,101155.52
2018-07-20T09:32:48.105Z,101160.27
2018-07-20T09:36:12.520Z,101155.25
2018-07-20T09:39:36.937Z,101159.05
2018-07-20T09:43:01.437Z,101154.09
2018-07-20T09:46:25.605Z,101152.16
2018-07-20T09:49:50.071Z,101157.08
2018-07-20T09:53:14.519Z,101155.34
2018-07-20T09:56:38.936Z,101156.48
2018-07-20T10:00:03.460Z,101154.05
2018-07-20T10:03:27.980Z,101149.61
2018-07-20T10:06:52.449Z,101154.11
2018-07-20T10:10:16.879Z,101158.73
2018-07-20T10:13:41.307Z,101159.87
2018-07-20T10:17:05.959Z,101149.98
2018-07-20T10:20:30.451Z,101150.98
2018-07-20T10:23:54.921Z,101152.17
2018-07-20T10:27:21.224Z,101148.31
2018-07-20T10:30:45.680Z,101148.89
2018-07-20T10:34:10.111Z,101148.14
2018-07-20T10:37:34.551Z,101146.38
2018-07-20T10:40:59.025Z,101144.06
2018-07-20T10:44:23.474Z,101139.24
2018-07-20T10:47:47.887Z,101137.97
2018-07-20T10:51:12.339Z,101136.98
2018-07-20T10:54:36.799Z,101134.19
2018-07-20T10:58:01.240Z,101132.66
2018-07-20T11:01:25.810Z,101126.27
2018-07-20T11:04:50.219Z,101129.46
2018-07-20T11:08:14.671Z,101127.27
2018-07-20T11:11:39.180Z,101121.69
2018-07-20T11:15:03.763Z,101116.36
2018-07-20T11:18:28.199Z,101116.36
2018-07-20T11:21:52.670Z,101106.53
2018-07-20T11:25:17.246Z,101110.14
2018-07-20T11:28:41.679Z,101110.00
2018-07-20T11:32:06.154Z,101104.56
2018-07-20T11:35:30.625Z,101097.06
2018-07-20T11:38:55.034Z,101086.45
2018-07-20T11:42:19.480Z,101086.84
2018-07-20T11:45:43.929Z,101084.30
2018-07-20T11:49:08.390Z,101080.09
2018-07-20T11:52:32.840Z,101080.80
2018-07-20T11:55:57.329Z,101074.68
2018-07-20T11:59:21.827Z,101064.02
2018-07-20T12:02:46.230Z,101069.59
2018-07-20T12:06:10.686Z,101064.15
2018-07-20T12:09:35.108Z,101063.24
2018-07-20T12:12:59.529Z,101058.64
2018-07-20T12:16:24.083Z,101055.03
2018-07-20T12:19:49.515Z,101049.84
2018-07-20T12:23:13.938Z,101036.55
2018-07-20T12:26:38.371Z,101034.59
2018-07-20T12:30:02.788Z,101034.98
2018-07-20T12:33:27.239Z,101028.62
2018-07-20T12:36:51.678Z,101026.38
2018-07-20T12:40:16.158Z,101017.98
2018-07-20T12:43:40.637Z,101016.61
2018-07-20T12:47:05.143Z,101004.16
2018-07-20T12:50:29.615Z,101010.66
2018-07-20T12:53:54.059Z,101019.94
2018-07-20T12:57:18.541Z,101018.95
2018-07-20T13:00:42.997Z,101009.39
2018-07-20T13:04:07.486Z,101004.15
2018-07-20T13:07:31.912Z,101005.94
2018-07-20T13:10:56.352Z,100991.22
2018-07-20T13:14:20.815Z,101004.16
2018-07-20T13:17:53.067Z,100998.72
2018-07-20T13:21:17.542Z,101000.94
2018-07-20T13:24:41.988Z,100985.81
2018-07-20T13:28:06.515Z,100993.11
2018-07-20T13:31:30.964Z,100995.36
2018-07-20T13:34:55.437Z,100985.95
2018-07-20T13:38:19.882Z,100984.48
2018-07-20T13:41:44.343Z,100987.49
2018-07-20T13:45:09.063Z,100979.36
2018-07-20T13:48:33.484Z,100970.14
2018-07-20T13:51:57.951Z,100967.67
2018-07-20T13:55:22.444Z,100964.78
2018-07-20T13:58:46.870Z,100962.47
2018-07-20T14:02:11.561Z,100957.77
2018-07-20T14:05:36.027Z,100956.62
2018-07-20T14:09:00.496Z,100944.51
2018-07-20T14:12:24.995Z,100939.22
2018-07-20T14:15:49.437Z,100931.88
2018-07-20T14:19:13.861Z,100939.83
2018-07-20T14:22:38.456Z,100938.90
2018-07-20T14:26:02.876Z,100940.16
2018-07-20T14:29:27.024Z,100927.55
2018-07-20T14:32:51.494Z,100922.76
2018-07-20T14:36:15.950Z,100927.48
2018-07-20T14:39:40.412Z,100922.16
2018-07-20T14:43:04.979Z,100916.89
2018-07-20T14:46:29.510Z,100907.43
2018-07-20T14:49:53.937Z,100910.61
2018-07-20T14:53:18.803Z,100902.30
2018-07-20T14:56:43.278Z,100906.67
2018-07-20T15:00:07.814Z,100897.33
2018-07-20T15:03:32.287Z,100896.38
2018-07-20T15:06:56.815Z,100889.49
2018-07-20T15:10:21.280Z,100883.47
2018-07-20T15:13:45.777Z,100881.28
2018-07-20T15:17:10.314Z,100878.73
2018-07-20T15:20:34.751Z,100872.58
2018-07-20T15:23:59.243Z,100874.23
2018-07-20T15:27:23.717Z,100867.66
2018-07-20T15:30:51.138Z,100868.95
2018-07-20T15:34:15.521Z,100868.28
2018-07-20T15:37:39.937Z,100871.48
2018-07-20T15:41:04.419Z,100871.85
2018-07-20T15:44:28.876Z,100865.08
2018-07-20T15:47:53.349Z,100861.41
2018-07-20T15:51:17.777Z,100860.13
2018-07-20T15:54:42.193Z,100856.82
2018-07-20T15:58:06.636Z,100856.55
2018-07-20T16:01:31.127Z,100861.55
2018-07-20T16:04:55.768Z,100857.03
2018-07-20T16:08:20.276Z,100866.13
2018-07-20T16:11:44.756Z,100862.38
2018-07-20T16:15:09.238Z,100862.58
2018-07-20T16:18:33.684Z,100868.03
2018-07-20T16:21:58.154Z,100857.87
2018-07-20T16:25:22.684Z,100862.89
2018-07-20T16:28:47.193Z,100856.58
2018-07-20T16:32:11.672Z,100854.51
2018-07-20T16:35:36.164Z,100852.45
2018-07-20T16:39:00.669Z,100846.81
2018-07-20T16:42:25.162Z,100842.57
2018-07-20T16:45:49.613Z,100848.75
2018-07-20T16:49:14.080Z,100837.42
2018-07-20T16:52:38.535Z,100838.39
2018-07-20T16:56:03.011Z,100834.57
2018-07-20T16:59:27.404Z,100830.88
2018-07-20T17:02:51.845Z,100830.49
2018-07-20T17:06:16.258Z,100827.30
2018-07-20T17:09:40.690Z,100820.69
2018-07-20T17:13:05.174Z,100828.97
2018-07-20T17:16:32.440Z,100823.37
2018-07-20T17:19:56.860Z,100821.06
2018-07-20T17:23:21.293Z,100817.80
2018-07-20T17:26:45.728Z,100811.14
2018-07-20T17:30:10.196Z,100814.28
2018-07-20T17:33:34.667Z,100808.22
2018-07-20T17:36:59.141Z,100810.03
2018-07-20T17:40:23.647Z,100811.73
2018-07-20T17:43:48.090Z,100812.67
2018-07-20T17:47:12.925Z,100815.02
2018-07-20T17:50:37.440Z,100818.48
2018-07-20T17:54:01.882Z,100818.84
2018-07-20T17:57:26.355Z,100816.39
2018-07-20T18:00:50.779Z,100822.39
2018-07-20T18:04:15.209Z,100823.52
2018-07-20T18:07:39.672Z,100824.09
2018-07-20T18:11:04.133Z,100824.02
2018-07-20T18:14:28.583Z,100820.22
2018-07-20T18:17:53.053Z,100820.98
2018-07-20T18:21:17.495Z,100818.97
2018-07-20T18:24:41.975Z,100821.88
2018-07-20T18:28:06.406Z,100825.19
2018-07-20T18:31:30.903Z,100826.52
2018-07-20T18:34:55.376Z,100822.75
2018-07-20T18:38:19.798Z,100829.98
2018-07-20T18:41:44.210Z,100831.49
2018-07-20T18:45:09.542Z,100832.17
2018-07-20T18:48:33.979Z,100833.78
2018-07-20T18:51:58.458Z,100831.34
2018-07-20T18:55:22.913Z,100834.72
2018-07-20T18:58:47.322Z,100829.09
2018-07-20T19:02:12.234Z,100827.30
2018-07-20T19:05:36.766Z,100825.07
2018-07-20T19:09:01.212Z,100826.30
2018-07-20T19:12:25.694Z,100826.22
2018-07-20T19:15:50.114Z,100828.96
2018-07-20T19:19:14.591Z,100834.09
2018-07-20T19:22:39.044Z,100834.41
2018-07-20T19:26:03.496Z,100836.70
2018-07-20T19:29:27.966Z,100852.42
2018-07-20T19:32:52.501Z,100858.31
2018-07-20T19:36:16.963Z,100862.98
2018-07-20T19:39:41.408Z,100863.75
2018-07-20T19:43:05.880Z,100865.23
2018-07-20T19:46:30.341Z,100869.29
2018-07-20T19:49:54.745Z,100876.95
2018-07-20T19:53:19.207Z,100881.56
2018-07-20T19:56:43.651Z,100884.03
2018-07-20T20:00:10.667Z,100885.93
2018-07-20T20:03:35.173Z,100879.55
2018-07-20T20:06:59.586Z,100886.27
2018-07-20T20:10:24.126Z,100886.66
2018-07-20T20:13:48.603Z,100889.19
2018-07-20T20:17:13.111Z,100894.48
2018-07-20T20:20:37.559Z,100889.73
2018-07-20T20:24:02.021Z,100892.70
2018-07-20T20:27:26.466Z,100889.19
2018-07-20T20:30:50.933Z,100889.66
2018-07-20T20:34:15.391Z,100887.98
2018-07-20T20:37:39.859Z,100879.98
2018-07-20T20:41:04.322Z,100888.62
2018-07-20T20:44:28.768Z,100881.70
2018-07-20T20:47:53.206Z,100887.45
2018-07-20T20:51:17.655Z,100886.59
2018-07-20T20:54:42.093Z,100883.89
2018-07-20T20:58:06.571Z,100875.98
2018-07-20T21:01:31.017Z,100876.84
2018-07-20T21:04:55.543Z,100870.34
2018-07-20T21:08:19.982Z,100873.09
2018-07-20T21:11:44.165Z,100875.21
2018-07-20T21:15:08.604Z,100874.69
2018-07-20T21:18:33.008Z,100862.56
2018-07-20T21:21:57.475Z,100857.20
2018-07-20T21:25:21.922Z,100852.94
2018-07-20T21:28:46.327Z,100854.40
2018-07-20T21:32:10.760Z,100849.81
2018-07-20T21:35:35.304Z,100855.34
2018-07-20T21:38:59.742Z,100851.13
2018-07-20T21:42:24.202Z,100852.00
2018-07-20T21:45:48.673Z,100846.13
2018-07-20T21:49:13.120Z,100839.52
2018-07-20T21:52:37.568Z,100835.05
2018-07-20T21:56:02.002Z,100839.75
2018-07-20T21:59:26.416Z,100844.05
2018-07-20T22:02:50.885Z,100846.09
2018-07-20T22:06:15.335Z,100843.34
2018-07-20T22:09:39.764Z,100854.14
2018-07-20T22:13:04.233Z,100850.97
2018-07-20T22:16:28.688Z,100846.30
2018-07-20T22:19:53.110Z,100855.77
2018-07-20T22:23:17.621Z,100849.02
2018-07-20T22:26:41.989Z,100846.38
2018-07-20T22:30:08.877Z,100846.32
2018-07-20T22:33:33.312Z,100854.98
2018-07-20T22:36:57.785Z,100857.27
2018-07-20T22:40:22.212Z,100857.67
2018-07-20T22:43:46.658Z,100854.58
2018-07-20T22:47:11.288Z,100850.02
2018-07-20T22:50:35.731Z,100845.20
2018-07-20T22:54:00.163Z,100838.42
2018-07-20T22:57:24.649Z,100843.11
2018-07-20T23:00:49.083Z,100841.98
2018-07-20T23:04:13.523Z,100847.17
2018-07-20T23:07:37.979Z,100840.91
2018-07-20T23:11:02.409Z,100842.75
2018-07-20T23:14:26.830Z,100841.45
2018-07-20T23:17:51.322Z,100841.45
2018-07-20T23:21:15.827Z,100842.88
2018-07-20T23:24:40.267Z,100837.96
2018-07-20T23:28:04.728Z,100830.94
2018-07-20T23:31:29.259Z,100834.88
2018-07-20T23:34:53.686Z,100832.12
2018-07-20T23:38:18.107Z,100831.72
2018-07-20T23:41:42.537Z,100828.59
2018-07-20T23:45:07.039Z,100833.49
2018-07-20T23:48:31.513Z,100842.49
2018-07-20T23:51:55.966Z,100840.26
2018-07-20T23:55:20.447Z,100840.93
2018-07-20T23:58:44.932Z,100845.14
